Time;durP1;ratioP1;P1;durP2;ratioP2;P2;SDS_P1;SDS_P2;PMS_P1;PMS_P2;Temp;Humidity;BMP_temperature;BMP_pressure;BME280_temperature;BME280_humidity;BME280_pressure;Samples;Min_cycle;Max_cycle;Signal;HPM_P1;HPM_P2
2024/02/11 00:02:12;;;;;;;3.15;1.77;;;12.80;86.90;;;;;;5030914;28;20029;-65
2024/02/11 00:04:40;;;;;;;3.00;1.92;;;12.90;87.00;;;;;;5035402;28;20112;-64
2024/02/11 00:07:07;;;;;;;3.15;2.13;;;12.90;87.00;;;;;;5028958;28;20151;-64
2024/02/11 00:09:33;;;;;;;2.80;1.83;;;12.90;87.00;;;;;;5021307;28;20034;-62
2024/02/11 00:11:58;;;;;;;2.20;1.60;;;12.90;87.00;;;;;;5022130;28;20030;-62
2024/02/11 00:14:27;;;;;;;2.75;1.88;;;12.90;87.00;;;;;;5027302;28;20257;-62
2024/02/11 00:16:57;;;;;;;2.35;1.65;;;12.80;87.10;;;;;;5030299;28;20090;-62
2024/02/11 00:19:24;;;;;;;2.72;1.58;;;12.80;87.10;;;;;;5027604;28;20070;-62
2024/02/11 00:21:50;;;;;;;2.47;2.03;;;12.80;87.20;;;;;;5019584;28;20057;-62
2024/02/11 00:24:19;;;;;;;2.65;1.80;;;12.80;87.20;;;;;;5029762;28;20033;-62
2024/02/11 00:26:47;;;;;;;2.40;1.60;;;12.80;87.10;;;;;;5035769;28;20037;-62
2024/02/11 00:29:13;;;;;;;3.10;1.95;;;12.80;87.10;;;;;;5030387;28;20546;-62
2024/02/11 00:31:39;;;;;;;1.92;1.40;;;12.80;87.20;;;;;;5029465;28;20049;-64
2024/02/11 00:34:05;;;;;;;2.97;1.60;;;12.80;87.10;;;;;;5029216;28;20037;-64
2024/02/11 00:36:36;;;;;;;1.75;1.30;;;12.80;87.00;;;;;;5028642;28;20341;-64
2024/02/11 00:39:02;;;;;;;3.70;1.52;;;12.90;87.10;;;;;;5028412;28;20080;-64
2024/02/11 00:41:28;;;;;;;2.13;1.42;;;12.90;87.10;;;;;;5032735;28;20056;-64
2024/02/11 00:43:55;;;;;;;2.50;1.48;;;12.90;87.00;;;;;;5035328;28;20466;-63
2024/02/11 00:46:21;;;;;;;1.98;1.20;;;12.90;87.00;;;;;;5029840;28;20187;-64
2024/02/11 00:48:47;;;;;;;2.10;1.67;;;12.90;87.00;;;;;;5029674;28;20037;-64
2024/02/11 00:51:13;;;;;;;1.98;1.77;;;12.90;87.00;;;;;;5031962;28;20037;-63
2024/02/11 00:53:39;;;;;;;1.65;1.55;;;12.80;87.00;;;;;;5015094;28;20052;-65
2024/02/11 00:56:06;;;;;;;2.38;1.77;;;12.90;87.10;;;;;;5030976;28;20721;-65
2024/02/11 00:58:33;;;;;;;1.95;1.75;;;12.90;87.10;;;;;;5028962;28;20535;-65
2024/02/11 01:00:59;;;;;;;2.65;1.95;;;12.80;87.10;;;;;;5029339;28;20025;-66
2024/02/11 01:03:25;;;;;;;3.70;2.33;;;12.80;87.10;;;;;;5030131;28;20033;-66
2024/02/11 01:05:52;;;;;;;2.30;1.52;;;12.80;87.10;;;;;;5032755;28;20441;-65
2024/02/11 01:08:17;;;;;;;2.65;1.90;;;12.90;87.10;;;;;;5028074;28;20037;-65
2024/02/11 01:10:43;;;;;;;2.42;1.92;;;12.80;87.10;;;;;;5030005;28;20041;-65
2024/02/11 01:13:13;;;;;;;1.77;1.33;;;12.80;87.10;;;;;;5029309;28;20072;-65
2024/02/11 01:15:39;;;;;;;2.47;1.73;;;12.80;87.20;;;;;;5031660;28;20108;-65
2024/02/11 01:18:06;;;;;;;2.00;1.65;;;12.80;87.20;;;;;;5029184;28;20107;-65
2024/02/11 01:20:32;;;;;;;1.67;1.30;;;12.80;87.20;;;;;;5035133;28;20384;-65
2024/02/11 01:22:58;;;;;;;2.72;1.65;;;12.80;87.20;;;;;;5035738;28;20029;-65
2024/02/11 01:25:24;;;;;;;3.08;1.83;;;12.80;87.20;;;;;;5031948;28;20494;-65
2024/02/11 01:27:50;;;;;;;2.38;1.63;;;12.80;87.20;;;;;;5022428;28;20037;-65
2024/02/11 01:30:17;;;;;;;4.30;3.03;;;12.80;87.20;;;;;;5025500;28;20495;-66
2024/02/11 01:32:44;;;;;;;2.47;1.55;;;12.70;87.20;;;;;;5029755;28;20036;-65
2024/02/11 01:35:12;;;;;;;5.45;1.95;;;12.70;87.20;;;;;;5029375;28;20040;-65
2024/02/11 01:37:40;;;;;;;2.20;1.60;;;12.70;87.30;;;;;;5028234;28;20404;-65
2024/02/11 01:40:23;;;;;;;4.45;2.58;;;12.70;87.40;;;;;;5027625;28;20022;-65
2024/02/11 01:42:49;;;;;;;5.10;2.17;;;12.70;87.40;;;;;;5027418;28;20057;-65
2024/02/11 01:45:17;;;;;;;2.80;1.80;;;12.70;87.40;;;;;;5023524;28;20064;-66
2024/02/11 01:47:44;;;;;;;2.25;1.48;;;12.70;87.50;;;;;;5029196;28;20041;-66
2024/02/11 01:50:13;;;;;;;2.88;1.67;;;12.70;87.50;;;;;;5028294;28;20030;-65
2024/02/11 01:52:40;;;;;;;3.45;1.80;;;12.60;87.40;;;;;;5029157;28;20033;-64
2024/02/11 01:55:09;;;;;;;1.92;1.40;;;12.70;87.40;;;;;;5020739;28;20048;-65
2024/02/11 01:57:37;;;;;;;4.28;2.60;;;12.70;87.30;;;;;;5027026;28;20492;-65
2024/02/11 02:00:04;;;;;;;2.42;1.70;;;12.70;87.30;;;;;;5027570;28;20053;-63
2024/02/11 02:02:31;;;;;;;1.60;1.35;;;12.70;87.30;;;;;;5030041;28;20052;-65
2024/02/11 02:04:59;;;;;;;2.63;2.00;;;12.60;87.30;;;;;;5032385;28;20131;-66
2024/02/11 02:07:26;;;;;;;2.55;1.88;;;12.70;87.30;;;;;;5020453;28;20120;-66
2024/02/11 02:09:56;;;;;;;2.38;1.77;;;12.60;87.90;;;;;;5030609;28;20037;-65
2024/02/11 02:12:22;;;;;;;2.72;2.00;;;12.70;87.40;;;;;;5037743;28;20026;-66
2024/02/11 02:14:49;;;;;;;3.75;2.67;;;12.70;87.30;;;;;;5029308;28;20026;-66
2024/02/11 02:17:14;;;;;;;2.33;1.75;;;12.60;87.30;;;;;;5027631;28;20188;-65
2024/02/11 02:19:40;;;;;;;2.83;1.67;;;12.60;87.40;;;;;;5029624;28;20108;-65
2024/02/11 02:22:06;;;;;;;3.20;1.85;;;12.60;87.30;;;;;;5028382;28;20102;-65
2024/02/11 02:24:32;;;;;;;1.83;1.65;;;12.60;87.40;;;;;;5027546;28;20033;-65
2024/02/11 02:26:58;;;;;;;2.53;1.77;;;12.60;87.50;;;;;;5034248;28;20124;-65
2024/02/11 02:29:24;;;;;;;4.15;1.65;;;12.60;87.40;;;;;;5031123;28;20124;-66
2024/02/11 02:31:50;;;;;;;2.08;1.33;;;12.60;87.50;;;;;;5030219;28;20033;-66
2024/02/11 02:34:16;;;;;;;2.67;1.65;;;12.60;87.40;;;;;;5032459;28;20064;-65
2024/02/11 02:36:42;;;;;;;3.28;2.00;;;12.50;87.40;;;;;;5010974;28;20034;-65
2024/02/11 02:39:10;;;;;;;3.05;2.03;;;12.50;87.40;;;;;;5029870;28;20096;-66
2024/02/11 02:41:36;;;;;;;2.92;1.63;;;12.50;87.50;;;;;;5025673;28;20037;-65
2024/02/11 02:44:02;;;;;;;2.70;1.85;;;12.50;87.50;;;;;;5028277;28;20036;-63
2024/02/11 02:46:30;;;;;;;2.42;1.88;;;12.50;87.50;;;;;;5028725;28;20481;-63
2024/02/11 02:48:55;;;;;;;3.50;2.05;;;12.50;87.50;;;;;;5027530;28;20422;-63
2024/02/11 02:51:21;;;;;;;2.53;1.95;;;12.50;87.50;;;;;;5031319;28;20025;-62
2024/02/11 02:53:49;;;;;;;1.98;1.58;;;12.50;87.50;;;;;;5037636;28;20033;-65
2024/02/11 02:56:17;;;;;;;1.35;1.17;;;12.50;87.40;;;;;;5032140;28;20032;-66
2024/02/11 02:58:43;;;;;;;2.03;1.48;;;12.50;87.40;;;;;;5062767;28;20025;-63
2024/02/11 03:01:09;;;;;;;3.17;1.92;;;12.60;87.40;;;;;;5026536;28;20030;-63
2024/02/11 03:03:35;;;;;;;2.50;1.58;;;12.60;87.40;;;;;;5031913;28;20028;-63
2024/02/11 03:06:01;;;;;;;3.22;1.75;;;12.60;87.40;;;;;;5033049;28;20506;-63
2024/02/11 03:08:27;;;;;;;2.55;1.92;;;12.60;87.40;;;;;;5044029;28;20060;-63
2024/02/11 03:10:52;;;;;;;2.60;2.05;;;12.60;87.30;;;;;;5030971;28;20032;-62
2024/02/11 03:13:18;;;;;;;2.35;2.10;;;12.60;87.30;;;;;;5032448;28;20132;-63
2024/02/11 03:15:44;;;;;;;2.50;1.80;;;12.60;87.30;;;;;;5014134;28;20103;-62
2024/02/11 03:18:10;;;;;;;2.17;1.63;;;12.60;87.30;;;;;;5027069;28;20040;-62
2024/02/11 03:20:36;;;;;;;2.50;1.77;;;12.60;87.30;;;;;;5029982;28;20497;-63
2024/02/11 03:23:02;;;;;;;2.28;1.77;;;12.50;87.20;;;;;;5027948;28;20053;-63
2024/02/11 03:25:28;;;;;;;3.83;2.47;;;12.50;87.30;;;;;;5030570;28;20057;-63
2024/02/11 03:27:54;;;;;;;3.08;1.88;;;12.50;87.30;;;;;;5029237;28;20038;-62
2024/02/11 03:30:22;;;;;;;2.50;1.88;;;12.50;87.30;;;;;;5034982;28;20150;-66
2024/02/11 03:32:49;;;;;;;2.53;1.77;;;12.50;87.30;;;;;;5028065;28;20041;-66
2024/02/11 03:35:16;;;;;;;2.78;2.08;;;12.50;87.40;;;;;;5032357;28;20057;-63
2024/02/11 03:37:42;;;;;;;2.38;1.83;;;12.50;87.40;;;;;;5027851;28;20166;-63
2024/02/11 03:40:10;;;;;;;3.15;2.35;;;12.50;87.40;;;;;;5026525;28;20145;-63
2024/02/11 03:42:36;;;;;;;2.63;2.08;;;12.50;87.50;;;;;;5025160;28;20041;-63
2024/02/11 03:45:09;;;;;;;2.20;1.75;;;12.40;87.50;;;;;;5029749;28;20033;-63
2024/02/11 03:47:35;;;;;;;2.80;2.22;;;12.40;87.50;;;;;;5030619;28;20063;-63
2024/02/11 03:50:03;;;;;;;3.50;1.90;;;12.40;87.50;;;;;;5029616;28;20030;-63
2024/02/11 03:52:28;;;;;;;2.50;1.80;;;12.40;87.50;;;;;;5021613;28;20048;-62
2024/02/11 03:54:55;;;;;;;2.25;1.73;;;12.40;87.50;;;;;;5031506;28;20037;-62
2024/02/11 03:57:21;;;;;;;3.20;2.22;;;12.40;87.50;;;;;;5027566;28;20040;-62
2024/02/11 03:59:47;;;;;;;4.13;2.05;;;12.40;87.50;;;;;;5029862;28;20389;-62
2024/02/11 04:02:13;;;;;;;2.35;1.92;;;12.40;87.50;;;;;;5027900;28;20117;-62
2024/02/11 04:04:39;;;;;;;3.92;2.67;;;12.40;87.60;;;;;;5029303;28;20108;-62
2024/02/11 04:07:10;;;;;;;3.75;2.63;;;12.40;87.60;;;;;;5026910;28;20033;-62
2024/02/11 04:09:39;;;;;;;2.42;1.85;;;12.40;87.70;;;;;;5030611;28;20045;-62
2024/02/11 04:12:10;;;;;;;3.92;2.03;;;12.40;87.70;;;;;;5029915;28;20052;-64
2024/02/11 04:14:42;;;;;;;2.58;1.70;;;12.40;87.70;;;;;;5024138;28;20037;-65
2024/02/11 04:17:14;;;;;;;2.78;2.05;;;12.40;87.60;;;;;;5027059;28;20037;-65
2024/02/11 04:19:44;;;;;;;4.00;2.13;;;12.30;87.60;;;;;;5021251;28;20030;-65
2024/02/11 04:22:10;;;;;;;3.05;2.55;;;12.40;87.70;;;;;;5029739;28;20041;-66
2024/02/11 04:24:40;;;;;;;2.95;1.67;;;12.40;87.70;;;;;;5024637;28;20071;-65
2024/02/11 04:27:07;;;;;;;3.33;2.42;;;12.40;87.70;;;;;;5026653;28;20033;-65
2024/02/11 04:29:33;;;;;;;1.85;1.40;;;12.40;87.60;;;;;;5028254;28;20095;-65
2024/02/11 04:31:59;;;;;;;2.90;2.13;;;12.40;87.60;;;;;;5030146;28;20025;-64
2024/02/11 04:34:26;;;;;;;2.50;1.95;;;12.40;87.60;;;;;;5028629;28;20404;-65
2024/02/11 04:36:52;;;;;;;2.97;2.40;;;12.30;87.50;;;;;;5037237;28;20033;-65
2024/02/11 04:39:18;;;;;;;4.28;2.80;;;12.30;87.60;;;;;;5019178;28;20041;-65
2024/02/11 04:41:44;;;;;;;2.92;1.95;;;12.30;87.50;;;;;;5028179;28;20025;-64
2024/02/11 04:44:11;;;;;;;4.30;2.55;;;12.30;87.50;;;;;;5033580;28;20598;-65
2024/02/11 04:46:38;;;;;;;3.50;2.22;;;12.30;87.50;;;;;;5028602;28;20327;-65
2024/02/11 04:49:04;;;;;;;2.88;2.30;;;12.30;87.50;;;;;;5029772;28;20032;-65
2024/02/11 04:51:30;;;;;;;3.03;2.03;;;12.30;87.50;;;;;;5031406;28;20056;-65
2024/02/11 04:53:57;;;;;;;3.35;2.03;;;12.30;87.60;;;;;;5028978;28;20033;-65
2024/02/11 04:56:25;;;;;;;2.50;1.63;;;12.30;87.70;;;;;;5027129;28;20132;-65
2024/02/11 04:58:51;;;;;;;2.22;1.73;;;12.20;87.60;;;;;;5027098;28;20032;-62
2024/02/11 05:01:18;;;;;;;2.70;1.77;;;12.30;87.60;;;;;;5027815;28;20036;-62
2024/02/11 05:03:47;;;;;;;3.83;2.60;;;12.20;87.50;;;;;;5009728;28;20048;-62
2024/02/11 05:06:18;;;;;;;3.10;2.30;;;12.20;87.60;;;;;;5028216;28;20036;-62
2024/02/11 05:08:45;;;;;;;2.53;2.10;;;12.20;87.70;;;;;;5026624;28;20029;-62
2024/02/11 05:11:11;;;;;;;3.58;1.85;;;12.20;87.70;;;;;;5027178;28;20026;-62
2024/02/11 05:13:37;;;;;;;3.40;2.42;;;12.20;87.60;;;;;;5024170;28;20143;-62
2024/02/11 05:16:05;;;;;;;4.20;2.58;;;12.20;87.60;;;;;;5044429;28;20026;-62
2024/02/11 05:18:38;;;;;;;3.13;2.17;;;12.20;87.60;;;;;;5028693;28;20032;-65
2024/02/11 05:21:04;;;;;;;3.25;2.35;;;12.20;87.50;;;;;;5026105;28;20029;-65
2024/02/11 05:23:30;;;;;;;2.92;1.70;;;12.20;88.10;;;;;;5023200;28;20057;-65
2024/02/11 05:25:59;;;;;;;4.72;2.45;;;12.20;87.50;;;;;;5028679;28;20056;-65
2024/02/11 05:28:24;;;;;;;2.70;2.08;;;12.20;88.10;;;;;;5022128;28;20064;-65
2024/02/11 05:30:52;;;;;;;4.70;1.85;;;12.20;87.50;;;;;;5031607;28;20029;-67
2024/02/11 05:33:20;;;;;;;2.00;1.70;;;12.20;87.50;;;;;;5031162;28;20076;-66
2024/02/11 05:35:46;;;;;;;2.67;2.30;;;12.20;87.50;;;;;;5029199;28;20064;-64
2024/02/11 05:38:13;;;;;;;4.25;2.20;;;12.20;87.50;;;;;;5026139;28;20390;-64
2024/02/11 05:40:48;;;;;;;2.78;1.98;;;12.20;87.60;;;;;;5025676;28;20527;-61
2024/02/11 05:43:23;;;;;;;2.47;1.75;;;12.20;87.60;;;;;;5023111;28;20030;-64
2024/02/11 05:45:49;;;;;;;3.15;2.15;;;12.30;87.60;;;;;;5023010;28;20033;-63
2024/02/11 05:48:17;;;;;;;4.07;2.80;;;12.30;87.60;;;;;;5026788;28;20026;-71
2024/02/11 05:50:45;;;;;;;3.10;2.50;;;12.30;87.60;;;;;;5027754;28;20445;-64
2024/02/11 05:53:12;;;;;;;3.20;2.22;;;12.20;87.60;;;;;;5028447;28;20018;-66
2024/02/11 05:55:38;;;;;;;3.20;2.25;;;12.20;87.60;;;;;;5023710;28;20373;-63
2024/02/11 05:58:05;;;;;;;4.32;2.35;;;12.20;87.60;;;;;;5029330;28;20071;-63
2024/02/11 06:00:31;;;;;;;4.35;2.20;;;12.20;87.60;;;;;;5023443;28;20033;-64
2024/02/11 06:02:58;;;;;;;3.92;2.53;;;12.20;87.70;;;;;;5028630;28;20048;-64
2024/02/11 06:05:25;;;;;;;3.40;2.30;;;12.20;87.70;;;;;;5027307;28;20392;-64
2024/02/11 06:07:54;;;;;;;3.08;2.03;;;12.20;87.70;;;;;;5028616;28;20400;-64
2024/02/11 06:10:22;;;;;;;5.13;2.15;;;12.20;87.60;;;;;;5028005;28;20040;-64
2024/02/11 06:12:51;;;;;;;3.65;2.78;;;12.20;87.60;;;;;;5027748;28;20508;-61
2024/02/11 06:15:20;;;;;;;5.05;2.10;;;12.20;87.60;;;;;;5026040;28;20437;-64
2024/02/11 06:17:48;;;;;;;3.40;2.03;;;12.30;87.70;;;;;;5028873;28;20025;-63
2024/02/11 06:20:18;;;;;;;3.83;2.97;;;12.20;87.60;;;;;;5027338;28;20029;-64
2024/02/11 06:22:46;;;;;;;13.77;2.38;;;12.20;87.60;;;;;;5028843;28;20045;-61
2024/02/11 06:25:12;;;;;;;2.45;1.90;;;12.20;87.60;;;;;;5026116;28;20033;-61
2024/02/11 06:27:38;;;;;;;3.65;2.55;;;12.30;87.70;;;;;;5032221;28;20064;-61
2024/02/11 06:30:11;;;;;;;2.63;1.88;;;12.30;87.70;;;;;;5028762;28;20026;-64
2024/02/11 06:32:39;;;;;;;4.45;2.72;;;12.30;87.60;;;;;;5030908;28;20099;-62
2024/02/11 06:35:06;;;;;;;3.83;2.45;;;12.30;87.70;;;;;;5027246;28;20477;-62
2024/02/11 06:37:32;;;;;;;2.88;2.08;;;12.30;87.70;;;;;;5023805;28;20589;-64
2024/02/11 06:40:01;;;;;;;3.53;2.45;;;12.30;87.70;;;;;;5029725;28;20022;-64
2024/02/11 06:42:30;;;;;;;5.40;2.75;;;12.30;87.70;;;;;;5037039;28;20029;-64
2024/02/11 06:44:56;;;;;;;3.22;2.40;;;12.30;87.80;;;;;;5032600;28;20029;-65
2024/02/11 06:47:22;;;;;;;3.95;2.28;;;12.30;87.70;;;;;;5034283;28;20140;-64
2024/02/11 06:49:48;;;;;;;5.60;2.78;;;12.30;87.70;;;;;;5029929;28;20124;-64
2024/02/11 06:52:14;;;;;;;5.32;3.20;;;12.30;87.70;;;;;;5031816;28;20101;-64
2024/02/11 06:54:40;;;;;;;4.20;3.13;;;12.20;88.00;;;;;;5030455;28;20033;-64
2024/02/11 06:57:06;;;;;;;4.43;2.70;;;12.10;88.50;;;;;;5032363;28;20498;-64
2024/02/11 06:59:35;;;;;;;2.80;1.90;;;11.90;89.10;;;;;;5033988;28;20025;-65
2024/02/11 07:02:01;;;;;;;2.33;2.10;;;11.80;89.40;;;;;;5030737;28;20496;-64
2024/02/11 07:04:27;;;;;;;2.97;1.63;;;11.60;89.50;;;;;;5030619;28;20477;-63
2024/02/11 07:06:53;;;;;;;1.92;1.20;;;11.50;89.80;;;;;;5025373;28;20484;-64
2024/02/11 07:09:22;;;;;;;3.58;1.58;;;11.40;90.00;;;;;;5031297;28;20033;-61
2024/02/11 07:11:49;;;;;;;2.17;1.70;;;11.40;90.00;;;;;;5025023;28;20052;-64
2024/02/11 07:14:18;;;;;;;2.67;1.75;;;11.40;90.00;;;;;;5034028;28;20539;-64
2024/02/11 07:16:44;;;;;;;3.08;1.70;;;11.30;90.10;;;;;;5033886;28;20384;-66
2024/02/11 07:19:12;;;;;;;3.83;2.28;;;11.30;90.10;;;;;;5030444;28;20025;-65
2024/02/11 07:21:40;;;;;;;3.28;2.42;;;11.30;90.00;;;;;;5029302;28;20053;-62
2024/02/11 07:24:06;;;;;;;4.43;2.50;;;11.20;90.00;;;;;;5034800;28;20025;-65
2024/02/11 07:26:36;;;;;;;5.75;3.13;;;11.20;90.00;;;;;;5034013;28;20096;-64
2024/02/11 07:29:03;;;;;;;11.18;2.42;;;11.10;90.00;;;;;;5031614;28;20052;-63
2024/02/11 07:31:29;;;;;;;3.45;2.20;;;11.10;90.00;;;;;;5032193;28;20579;-64
2024/02/11 07:33:54;;;;;;;3.53;2.33;;;11.10;90.00;;;;;;5028680;28;20052;-62
2024/02/11 07:36:22;;;;;;;6.20;3.30;;;11.00;89.90;;;;;;5029258;28;20060;-61
2024/02/11 07:38:51;;;;;;;7.07;3.55;;;11.00;90.00;;;;;;5032158;28;20055;-62
2024/02/11 07:41:17;;;;;;;7.53;3.72;;;10.90;89.90;;;;;;5036293;28;20036;-62
2024/02/11 07:43:43;;;;;;;4.70;2.83;;;10.80;90.00;;;;;;5029234;28;20044;-61
2024/02/11 07:46:11;;;;;;;9.98;4.47;;;10.80;90.00;;;;;;5031081;28;20583;-62
2024/02/11 07:48:37;;;;;;;5.93;3.17;;;10.70;90.00;;;;;;5030787;28;20461;-61
2024/02/11 07:51:06;;;;;;;5.82;3.42;;;10.70;90.00;;;;;;5030419;28;20036;-63
2024/02/11 07:53:31;;;;;;;6.85;3.65;;;10.70;90.00;;;;;;5026623;28;20042;-65
2024/02/11 07:55:57;;;;;;;6.95;3.67;;;10.70;90.00;;;;;;5034961;28;20092;-65
2024/02/11 07:58:23;;;;;;;9.38;4.38;;;10.70;89.90;;;;;;5027572;28;20057;-65
2024/02/11 08:00:49;;;;;;;8.05;3.88;;;10.70;89.90;;;;;;5025383;28;20033;-64
2024/02/11 08:03:15;;;;;;;5.93;3.67;;;10.70;89.90;;;;;;5029619;28;20056;-65
2024/02/11 08:05:41;;;;;;;7.07;3.67;;;10.70;90.00;;;;;;5032555;28;20104;-65
2024/02/11 08:08:07;;;;;;;7.63;3.67;;;10.70;89.90;;;;;;5033804;28;20029;-64
2024/02/11 08:10:33;;;;;;;5.35;3.58;;;10.70;89.80;;;;;;5023765;28;20037;-65
2024/02/11 08:12:58;;;;;;;9.73;4.22;;;10.70;89.70;;;;;;5026833;28;20484;-65
2024/02/11 08:15:24;;;;;;;6.00;3.80;;;10.70;89.70;;;;;;5030473;28;20065;-65
2024/02/11 08:17:50;;;;;;;7.85;4.25;;;10.70;89.70;;;;;;5031260;28;20091;-65
2024/02/11 08:20:18;;;;;;;8.35;3.97;;;10.70;89.70;;;;;;5029760;28;20191;-65
2024/02/11 08:22:45;;;;;;;6.70;3.65;;;10.60;89.60;;;;;;5030294;28;20046;-64
2024/02/11 08:25:11;;;;;;;4.70;3.20;;;10.60;89.70;;;;;;5027122;28;20044;-64
2024/02/11 08:27:38;;;;;;;5.65;2.95;;;10.60;89.70;;;;;;5028544;28;20442;-64
2024/02/11 08:30:11;;;;;;;4.60;2.78;;;10.60;89.70;;;;;;5028824;28;20025;-64
2024/02/11 08:32:42;;;;;;;5.68;3.33;;;10.70;89.60;;;;;;5030297;28;20445;-65
2024/02/11 08:35:11;;;;;;;7.03;3.03;;;10.70;89.30;;;;;;5024913;28;20032;-64
2024/02/11 08:37:36;;;;;;;6.93;3.42;;;10.70;89.20;;;;;;5029976;28;20457;-64
2024/02/11 08:40:07;;;;;;;5.75;1.92;;;10.60;89.10;;;;;;5026418;28;20484;-65
2024/02/11 08:42:33;;;;;;;7.38;3.05;;;10.70;89.10;;;;;;5025993;28;20030;-64
2024/02/11 08:44:59;;;;;;;5.20;2.88;;;10.70;89.00;;;;;;5030135;28;20029;-64
2024/02/11 08:47:25;;;;;;;5.28;2.50;;;10.70;88.80;;;;;;5028487;28;21140;-65
2024/02/11 08:49:51;;;;;;;9.27;3.13;;;10.70;88.70;;;;;;5030758;28;20030;-65
2024/02/11 08:52:16;;;;;;;7.10;2.30;;;10.70;88.60;;;;;;5034072;28;20037;-64
2024/02/11 08:54:42;;;;;;;7.10;2.92;;;10.70;88.60;;;;;;5029315;28;20029;-65
2024/02/11 08:57:14;;;;;;;5.97;2.08;;;10.70;88.60;;;;;;5028864;28;20037;-65
2024/02/11 08:59:43;;;;;;;8.23;2.67;;;10.80;89.10;;;;;;5028531;28;20389;-65
2024/02/11 09:02:12;;;;;;;5.88;2.45;;;10.90;88.50;;;;;;5026955;28;20025;-65
2024/02/11 09:04:38;;;;;;;12.25;2.97;;;10.90;88.20;;;;;;5026745;28;20041;-64
2024/02/11 09:07:09;;;;;;;5.93;2.70;;;10.90;88.20;;;;;;5022208;28;20037;-66
2024/02/11 09:09:35;;;;;;;13.52;3.40;;;10.90;88.10;;;;;;5018325;28;20038;-62
2024/02/11 09:12:01;;;;;;;7.22;2.50;;;10.90;88.10;;;;;;5025291;28;20053;-62
2024/02/11 09:14:32;;;;;;;6.40;2.92;;;10.90;88.10;;;;;;5025540;28;20138;-62
2024/02/11 09:17:02;;;;;;;7.20;3.53;;;11.00;88.10;;;;;;5029803;28;20391;-61
2024/02/11 09:19:28;;;;;;;4.70;3.30;;;11.00;87.80;;;;;;5026281;28;20029;-61
2024/02/11 09:21:54;;;;;;;4.97;2.92;;;11.00;87.90;;;;;;5027270;28;20041;-61
2024/02/11 09:24:22;;;;;;;5.05;3.00;;;11.00;87.90;;;;;;5027424;28;20033;-61
2024/02/11 09:26:48;;;;;;;4.75;2.40;;;11.00;87.90;;;;;;5027861;28;20034;-62
2024/02/11 09:29:14;;;;;;;5.53;3.13;;;11.10;88.00;;;;;;5029165;28;20025;-61
2024/02/11 09:31:40;;;;;;;3.65;2.65;;;11.10;87.90;;;;;;5029451;28;20497;-61
2024/02/11 09:34:06;;;;;;;5.20;3.22;;;11.20;87.70;;;;;;5026172;28;20065;-62
2024/02/11 09:36:35;;;;;;;7.38;4.57;;;11.20;87.70;;;;;;5026768;28;20104;-62
2024/02/11 09:39:00;;;;;;;6.78;3.67;;;11.30;87.60;;;;;;5027156;28;20033;-62
2024/02/11 09:41:30;;;;;;;6.63;3.75;;;11.30;88.20;;;;;;5030437;28;20491;-62
2024/02/11 09:44:04;;;;;;;6.45;3.67;;;11.30;87.40;;;;;;5026393;28;20405;-63
2024/02/11 09:46:37;;;;;;;7.53;3.13;;;11.30;87.50;;;;;;5025320;28;20038;-67
2024/02/11 09:49:16;;;;;;;6.25;3.28;;;11.40;87.60;;;;;;5033832;28;20099;-67
2024/02/11 09:51:45;;;;;;;9.25;3.92;;;11.40;87.50;;;;;;5030236;28;20030;-67
2024/02/11 09:54:13;;;;;;;6.20;3.25;;;11.40;87.50;;;;;;5023458;28;20131;-67
2024/02/11 09:56:39;;;;;;;5.10;3.15;;;11.50;87.40;;;;;;5020005;28;20025;-67
2024/02/11 09:59:05;;;;;;;6.40;3.22;;;11.50;87.30;;;;;;5018184;28;20026;-67
2024/02/11 10:01:33;;;;;;;4.43;2.70;;;11.50;87.30;;;;;;5033304;28;20033;-67
2024/02/11 10:04:04;;;;;;;6.65;3.40;;;11.50;87.40;;;;;;5036555;28;20021;-66
2024/02/11 10:06:41;;;;;;;5.68;3.80;;;11.50;87.40;;;;;;5027060;28;20025;-62
2024/02/11 10:09:10;;;;;;;6.43;3.22;;;11.50;87.40;;;;;;5034121;28;20041;-62
2024/02/11 10:11:38;;;;;;;5.78;3.13;;;11.50;87.40;;;;;;5033739;28;20041;-66
2024/02/11 10:14:08;;;;;;;7.97;3.60;;;11.50;87.40;;;;;;5026396;28;20023;-66
2024/02/11 10:16:39;;;;;;;5.55;2.70;;;11.60;87.30;;;;;;5032987;28;20399;-68
2024/02/11 10:19:06;;;;;;;6.65;3.47;;;11.60;87.30;;;;;;5037653;28;20037;-66
2024/02/11 10:21:32;;;;;;;13.18;3.50;;;11.60;87.30;;;;;;5037107;28;20537;-66
2024/02/11 10:23:57;;;;;;;13.30;3.35;;;11.60;87.10;;;;;;5031055;28;20037;-66
2024/02/11 10:26:23;;;;;;;7.13;3.13;;;11.50;87.00;;;;;;5033753;28;20029;-66
2024/02/11 10:28:49;;;;;;;8.38;3.38;;;11.50;87.10;;;;;;5028918;28;20041;-66
2024/02/11 10:31:15;;;;;;;7.38;3.28;;;11.50;87.00;;;;;;5034585;28;21413;-66
2024/02/11 10:33:42;;;;;;;5.50;3.72;;;11.50;87.00;;;;;;5025611;28;20030;-67
2024/02/11 10:36:11;;;;;;;5.72;3.95;;;11.50;86.90;;;;;;5036354;28;20531;-67
2024/02/11 10:38:36;;;;;;;7.88;3.85;;;11.50;87.00;;;;;;5029352;28;20035;-67
2024/02/11 10:41:03;;;;;;;7.47;4.00;;;11.60;86.90;;;;;;5028723;28;20030;-67
2024/02/11 10:43:36;;;;;;;6.78;4.00;;;11.60;86.90;;;;;;5027007;28;20104;-62
2024/02/11 10:46:02;;;;;;;8.25;3.53;;;11.70;86.60;;;;;;5031485;28;20061;-62
2024/02/11 10:48:28;;;;;;;5.07;3.20;;;11.70;86.50;;;;;;5031394;28;20485;-62
2024/02/11 10:51:12;;;;;;;7.72;3.85;;;11.80;86.40;;;;;;5031107;28;20064;-62
2024/02/11 10:53:44;;;;;;;11.77;5.00;;;11.80;86.40;;;;;;5028234;28;20021;-62
2024/02/11 10:56:10;;;;;;;9.15;3.88;;;11.90;86.10;;;;;;5030100;28;20768;-63
2024/02/11 10:58:47;;;;;;;6.18;3.70;;;11.90;86.00;;;;;;5031245;28;20066;-62
2024/02/11 11:01:20;;;;;;;7.80;3.97;;;11.90;85.90;;;;;;5045853;28;20030;-62
2024/02/11 11:03:49;;;;;;;9.38;4.40;;;11.90;85.80;;;;;;5027442;28;20024;-62
2024/02/11 11:06:18;;;;;;;8.27;4.10;;;11.90;85.90;;;;;;5026262;28;20030;-62
2024/02/11 11:08:46;;;;;;;6.10;3.30;;;11.80;85.90;;;;;;5027012;28;20029;-62
2024/02/11 11:11:26;;;;;;;5.47;2.90;;;11.90;86.00;;;;;;5022471;28;20038;-62
2024/02/11 11:13:54;;;;;;;5.50;3.30;;;11.90;86.00;;;;;;5026925;28;20033;-62
2024/02/11 11:16:38;;;;;;;8.32;3.72;;;11.80;85.90;;;;;;5023508;28;20033;-62
2024/02/11 11:19:11;;;;;;;5.68;3.75;;;11.80;85.90;;;;;;5044904;28;20026;-62
2024/02/11 11:21:36;;;;;;;4.85;2.70;;;11.80;85.80;;;;;;5031830;28;20032;-62
2024/02/11 11:24:05;;;;;;;6.10;2.55;;;11.80;85.90;;;;;;5036935;28;20033;-62
2024/02/11 11:26:31;;;;;;;8.23;3.65;;;11.80;85.90;;;;;;5025742;28;20094;-62
2024/02/11 11:29:03;;;;;;;5.63;2.25;;;11.80;85.60;;;;;;5022478;28;20048;-62
2024/02/11 11:31:34;;;;;;;8.20;4.18;;;11.70;85.80;;;;;;5031315;28;20029;-62
2024/02/11 11:34:01;;;;;;;7.65;3.83;;;11.70;86.00;;;;;;5027969;28;20061;-67
2024/02/11 11:36:28;;;;;;;7.18;3.17;;;11.70;85.90;;;;;;5033942;28;20120;-67
2024/02/11 11:39:05;;;;;;;5.97;3.60;;;11.70;85.90;;;;;;5031463;28;20025;-67
2024/02/11 11:41:32;;;;;;;4.68;2.47;;;11.80;86.00;;;;;;5031621;28;20477;-67
2024/02/11 11:44:02;;;;;;;8.27;4.03;;;11.70;85.90;;;;;;5038884;28;20566;-67
2024/02/11 11:46:28;;;;;;;6.50;3.35;;;11.70;85.80;;;;;;5028045;28;20030;-67
2024/02/11 11:48:57;;;;;;;10.70;2.80;;;11.70;85.80;;;;;;5063152;28;20151;-67
2024/02/11 11:51:23;;;;;;;4.45;2.72;;;11.70;86.00;;;;;;5031281;28;20389;-67
2024/02/11 11:53:51;;;;;;;4.57;2.13;;;11.70;86.00;;;;;;5030857;28;20560;-67
2024/02/11 11:56:18;;;;;;;5.93;3.22;;;11.70;85.90;;;;;;5030900;28;20025;-67
2024/02/11 11:58:50;;;;;;;7.88;3.45;;;11.70;85.70;;;;;;5032744;28;20061;-67
2024/02/11 12:01:15;;;;;;;4.55;2.60;;;11.70;85.80;;;;;;5031086;28;20108;-67
2024/02/11 12:03:43;;;;;;;4.80;3.03;;;11.70;85.80;;;;;;5032994;28;20033;-67
2024/02/11 12:06:09;;;;;;;3.88;2.70;;;11.70;85.90;;;;;;5012179;28;20026;-67
2024/02/11 12:08:36;;;;;;;6.82;3.30;;;11.80;85.90;;;;;;5030666;28;20513;-67
2024/02/11 12:11:09;;;;;;;8.77;3.17;;;11.90;85.70;;;;;;5032118;28;20022;-67
2024/02/11 12:13:37;;;;;;;8.55;4.03;;;11.80;85.40;;;;;;5031919;28;20022;-67
2024/02/11 12:16:15;;;;;;;5.75;2.50;;;11.80;85.50;;;;;;5030503;28;20052;-67
2024/02/11 12:18:41;;;;;;;3.65;2.47;;;11.80;85.50;;;;;;5028761;28;20086;-67
2024/02/11 12:21:08;;;;;;;5.05;2.65;;;11.80;85.60;;;;;;5033012;28;20108;-67
2024/02/11 12:23:34;;;;;;;7.22;2.58;;;11.80;85.50;;;;;;5034400;28;20421;-62
2024/02/11 12:26:02;;;;;;;5.88;2.55;;;11.70;85.50;;;;;;5032557;28;20071;-67
2024/02/11 12:28:31;;;;;;;5.07;2.70;;;11.60;85.50;;;;;;5034019;28;20025;-62
2024/02/11 12:31:09;;;;;;;4.03;2.17;;;11.70;85.80;;;;;;5025605;28;20033;-62
2024/02/11 12:33:46;;;;;;;6.60;2.50;;;11.70;85.60;;;;;;5029804;28;20617;-62
2024/02/11 12:36:14;;;;;;;13.52;3.22;;;11.70;85.60;;;;;;5028145;28;20033;-62
2024/02/11 12:38:44;;;;;;;5.25;2.65;;;11.70;85.60;;;;;;5033404;28;20492;-62
2024/02/11 12:41:12;;;;;;;7.90;2.53;;;11.70;85.60;;;;;;5033664;28;20021;-67
2024/02/11 12:43:39;;;;;;;5.90;2.35;;;11.70;85.60;;;;;;5022987;28;20133;-67
2024/02/11 12:46:09;;;;;;;8.07;2.15;;;11.80;85.50;;;;;;5042196;28;20034;-67
2024/02/11 12:48:35;;;;;;;8.48;2.80;;;11.80;86.00;;;;;;5029858;28;20075;-67